Time;durP1;ratioP1;P1;durP2;ratioP2;P2;SDS_P1;SDS_P2;PMS_P1;PMS_P2;Temp;Humidity;BMP_temperature;BMP_pressure;BME280_temperature;BME280_humidity;BME280_pressure;Samples;Min_cycle;Max_cycle;Signal;HPM_P1;HPM_P2
2023/08/09 08:03:39;;;;;;;0.45;0.45;;;22.50;77.10;;;;;;6438262;27;20310;-50
2023/08/09 08:06:41;;;;;;;0.52;0.50;;;22.80;63.20;;;;;;6412776;27;20034;-51
2023/08/09 08:09:44;;;;;;;0.45;0.30;;;22.90;64.90;;;;;;6412952;27;20038;-50
2023/08/09 08:12:48;;;;;;;2.17;0.52;;;23.10;65.40;;;;;;6411063;27;20759;-51
2023/08/09 08:15:50;;;;;;;0.60;0.40;;;24.20;66.50;;;;;;6407338;27;20127;-51
2023/08/09 08:18:52;;;;;;;0.45;0.40;;;23.20;65.80;;;;;;6405027;27;20050;-52
2023/08/09 08:21:56;;;;;;;0.98;0.40;;;23.10;65.10;;;;;;6406892;27;20038;-50
2023/08/09 08:24:58;;;;;;;0.70;0.40;;;23.60;65.10;;;;;;6406786;27;20026;-52
2023/08/09 08:27:59;;;;;;;0.50;0.30;;;23.70;65.00;;;;;;6406696;27;20035;-49
2023/08/09 08:31:05;;;;;;;0.43;0.40;;;23.70;64.50;;;;;;6409116;27;20113;-53
2023/08/09 08:34:07;;;;;;;0.70;0.40;;;23.60;65.20;;;;;;6410216;27;20034;-52
2023/08/09 08:37:09;;;;;;;1.10;0.40;;;23.70;64.10;;;;;;6408259;27;20030;-49
2023/08/09 08:40:17;;;;;;;0.80;0.40;;;23.60;64.30;;;;;;6409900;27;20041;-53
2023/08/09 08:43:20;;;;;;;0.75;0.40;;;23.90;64.50;;;;;;6390948;27;20038;-50
2023/08/09 08:46:26;;;;;;;0.57;0.30;;;23.70;64.00;;;;;;6411261;27;20178;-51
2023/08/09 08:49:34;;;;;;;0.20;0.20;;;24.00;64.00;;;;;;6412311;27;20026;-50
2023/08/09 08:52:40;;;;;;;0.60;0.40;;;23.90;64.30;;;;;;6407789;27;20046;-50
2023/08/09 08:55:42;;;;;;;0.50;0.32;;;24.10;63.90;;;;;;6386454;27;20488;-52
2023/08/09 08:58:48;;;;;;;0.30;0.20;;;24.10;64.40;;;;;;6387036;27;20034;-52
2023/08/09 09:01:50;;;;;;;0.73;0.30;;;24.00;63.80;;;;;;6384058;27;20536;-50
2023/08/09 09:04:52;;;;;;;0.85;0.20;;;24.10;63.90;;;;;;6385292;27;20030;-51
2023/08/09 09:07:56;;;;;;;0.52;0.30;;;24.40;64.30;;;;;;6384457;27;20493;-49
2023/08/09 09:10:59;;;;;;;0.63;0.40;;;24.30;64.10;;;;;;6381339;27;20039;-49
2023/08/09 09:14:03;;;;;;;0.30;0.30;;;24.40;63.80;;;;;;6368976;27;20039;-51
2023/08/09 09:17:08;;;;;;;0.30;0.30;;;24.10;63.60;;;;;;6365496;27;20066;-47
2023/08/09 09:20:18;;;;;;;0.40;0.30;;;23.90;63.40;;;;;;6361238;27;20039;-52
2023/08/09 09:23:28;;;;;;;0.50;0.40;;;24.40;63.80;;;;;;6365827;27;20636;-52
2023/08/09 09:26:30;;;;;;;0.38;0.20;;;24.20;64.20;;;;;;6345323;27;20065;-50
2023/08/09 09:29:33;;;;;;;0.73;0.40;;;24.20;64.00;;;;;;6363655;27;20070;-48
2023/08/09 09:32:36;;;;;;;0.50;0.30;;;24.40;64.30;;;;;;6364874;27;20046;-52
2023/08/09 09:35:40;;;;;;;0.57;0.40;;;23.60;63.50;;;;;;6366275;27;20146;-51
2023/08/09 09:38:50;;;;;;;0.30;0.20;;;24.60;63.20;;;;;;6364936;27;20045;-49
2023/08/09 09:41:52;;;;;;;0.43;0.25;;;24.50;63.10;;;;;;6365128;27;20046;-47
2023/08/09 09:45:00;;;;;;;0.45;0.30;;;24.40;63.10;;;;;;6367102;27;20041;-50
2023/08/09 09:48:02;;;;;;;0.68;0.22;;;24.30;63.00;;;;;;6367595;27;20035;-49
2023/08/09 09:51:05;;;;;;;0.73;0.40;;;24.60;63.00;;;;;;6367459;27;20109;-50
2023/08/09 09:54:07;;;;;;;0.38;0.38;;;24.40;62.90;;;;;;6364730;27;20038;-49
2023/08/09 09:57:09;;;;;;;0.38;0.20;;;24.70;63.10;;;;;;6361223;27;20344;-50
2023/08/09 10:00:14;;;;;;;0.38;0.20;;;24.40;62.80;;;;;;6362050;27;20524;-50
2023/08/09 10:03:18;;;;;;;0.32;0.28;;;24.90;63.10;;;;;;6361661;27;20145;-51
2023/08/09 10:06:25;;;;;;;0.30;0.20;;;25.50;63.40;;;;;;6337530;27;20087;-50
2023/08/09 10:09:27;;;;;;;1.38;0.40;;;24.80;62.90;;;;;;6354609;27;20031;-49
2023/08/09 10:12:30;;;;;;;0.10;0.10;;;24.30;62.70;;;;;;6353624;27;20096;-52
2023/08/09 10:15:43;;;;;;;0.30;0.20;;;24.80;62.90;;;;;;6354759;27;20034;-50
2023/08/09 10:18:49;;;;;;;0.30;0.30;;;24.70;62.10;;;;;;6334929;27;20034;-52
2023/08/09 10:21:54;;;;;;;0.47;0.38;;;24.60;62.70;;;;;;6352431;27;20122;-50
2023/08/09 10:24:57;;;;;;;0.15;0.15;;;24.70;62.80;;;;;;6352210;27;20140;-54
2023/08/09 10:28:02;;;;;;;0.55;0.17;;;24.90;63.00;;;;;;6351163;27;20547;-51
2023/08/09 10:31:03;;;;;;;0.20;0.20;;;24.80;62.60;;;;;;6350727;27;20034;-53
2023/08/09 10:34:13;;;;;;;0.20;0.20;;;24.90;62.90;;;;;;6352419;27;20214;-51
2023/08/09 10:37:24;;;;;;;0.20;0.20;;;25.00;62.90;;;;;;6351293;27;20085;-53
2023/08/09 10:40:35;;;;;;;0.20;0.20;;;25.10;62.50;;;;;;6339521;27;20473;-51
2023/08/09 10:43:37;;;;;;;0.22;0.20;;;25.00;62.70;;;;;;6361427;27;20046;-51
2023/08/09 10:46:39;;;;;;;0.25;0.20;;;24.80;62.20;;;;;;6342033;27;20859;-54
2023/08/09 10:49:56;;;;;;;0.52;0.10;;;25.00;62.70;;;;;;6362099;27;20075;-52
2023/08/09 10:53:01;;;;;;;0.20;0.20;;;25.10;62.20;;;;;;6362749;27;20034;-51
2023/08/09 10:56:02;;;;;;;0.20;0.20;;;25.00;62.10;;;;;;6360976;27;20034;-49
2023/08/09 10:59:07;;;;;;;0.35;0.35;;;24.90;62.10;;;;;;6362433;27;20035;-51
2023/08/09 11:02:09;;;;;;;2.00;0.50;;;25.10;62.30;;;;;;6343509;27;20099;-48
2023/08/09 11:05:12;;;;;;;1.05;0.50;;;25.40;62.30;;;;;;6361055;27;20045;-50
2023/08/09 11:08:21;;;;;;;1.40;0.63;;;25.20;62.20;;;;;;6363612;27;20041;-52
2023/08/09 11:11:23;;;;;;;0.55;0.40;;;25.30;61.80;;;;;;6362017;27;20114;-52
2023/08/09 11:14:25;;;;;;;0.82;0.40;;;25.10;62.30;;;;;;6361891;27;20039;-52
2023/08/09 11:17:26;;;;;;;0.93;0.40;;;24.90;62.00;;;;;;6363491;27;20041;-50
2023/08/09 11:20:30;;;;;;;1.20;0.50;;;25.20;62.40;;;;;;6362293;27;20031;-52
2023/08/09 11:23:35;;;;;;;0.70;0.50;;;25.20;62.40;;;;;;6362289;27;20046;-52
2023/08/09 11:26:38;;;;;;;1.05;0.55;;;25.20;61.90;;;;;;6361818;27;20046;-51
2023/08/09 11:29:40;;;;;;;0.65;0.40;;;25.20;62.30;;;;;;6345285;27;20037;-53
2023/08/09 11:32:45;;;;;;;0.60;0.47;;;25.20;62.50;;;;;;6362045;27;20046;-49
2023/08/09 11:35:47;;;;;;;0.73;0.40;;;25.20;62.40;;;;;;6363415;27;20447;-53
2023/08/09 11:38:49;;;;;;;0.68;0.40;;;25.20;62.90;;;;;;6362864;27;20734;-51
2023/08/09 11:41:54;;;;;;;0.50;0.40;;;25.30;62.70;;;;;;6361583;27;20075;-50
2023/08/09 11:44:57;;;;;;;0.77;0.38;;;24.90;62.40;;;;;;6347608;27;20540;-52
2023/08/09 11:47:59;;;;;;;0.28;0.22;;;25.10;63.20;;;;;;6364727;27;20106;-51
2023/08/09 11:51:06;;;;;;;0.30;0.30;;;24.50;62.30;;;;;;6364852;27;20110;-51
2023/08/09 11:54:09;;;;;;;0.85;0.40;;;25.20;62.80;;;;;;6361719;27;20056;-52
2023/08/09 11:57:11;;;;;;;0.95;0.45;;;24.90;63.00;;;;;;6363873;27;20295;-51
2023/08/09 12:00:15;;;;;;;0.50;0.30;;;25.10;63.00;;;;;;6362689;27;20057;-53
2023/08/09 12:03:20;;;;;;;3.15;0.50;;;25.10;62.90;;;;;;6360371;27;20045;-51
2023/08/09 12:06:35;;;;;;;0.47;0.30;;;25.30;63.50;;;;;;6360724;27;20245;-56
2023/08/09 12:09:42;;;;;;;0.88;0.40;;;25.10;63.10;;;;;;6345930;27;20039;-49
2023/08/09 12:12:44;;;;;;;0.95;0.40;;;25.20;63.40;;;;;;6366387;27;20031;-56
2023/08/09 12:15:47;;;;;;;0.40;0.40;;;25.30;63.60;;;;;;6365488;27;20042;-56
2023/08/09 12:18:48;;;;;;;1.10;0.40;;;25.20;63.80;;;;;;6365205;27;20640;-56
2023/08/09 12:21:50;;;;;;;0.57;0.55;;;25.00;63.70;;;;;;6361996;27;20709;-53
2023/08/09 12:24:52;;;;;;;0.40;0.30;;;25.40;64.00;;;;;;6363261;27;20520;-52
2023/08/09 12:27:58;;;;;;;0.68;0.30;;;25.30;64.00;;;;;;6364089;27;20035;-52
2023/08/09 12:31:00;;;;;;;0.38;0.30;;;25.30;64.10;;;;;;6364748;27;20031;-54
2023/08/09 12:34:02;;;;;;;0.30;0.30;;;25.00;63.80;;;;;;6362374;27;20034;-55
2023/08/09 12:37:07;;;;;;;0.50;0.30;;;25.30;64.00;;;;;;6354799;27;20031;-56
2023/08/09 12:40:11;;;;;;;0.68;0.38;;;25.30;64.40;;;;;;6341280;27;20303;-54
2023/08/09 12:43:14;;;;;;;0.30;0.20;;;25.30;63.90;;;;;;6361429;27;20276;-51
2023/08/09 12:46:18;;;;;;;0.40;0.40;;;25.60;64.00;;;;;;6360149;27;20117;-55
2023/08/09 12:49:22;;;;;;;1.08;0.20;;;25.30;64.20;;;;;;6362849;27;20035;-56
2023/08/09 12:52:24;;;;;;;0.63;0.20;;;25.10;63.70;;;;;;6363999;27;20047;-56
2023/08/09 12:55:26;;;;;;;0.30;0.30;;;25.50;64.00;;;;;;6365220;27;20063;-55
2023/08/09 12:58:31;;;;;;;0.70;0.40;;;25.30;63.80;;;;;;6366291;27;20252;-50
2023/08/09 13:01:33;;;;;;;0.43;0.35;;;25.00;63.50;;;;;;6364186;27;20042;-51
2023/08/09 13:04:34;;;;;;;0.30;0.30;;;25.50;64.00;;;;;;6364920;27;20034;-52
2023/08/09 13:07:36;;;;;;;0.50;0.30;;;25.20;64.10;;;;;;6363827;27;20241;-55
2023/08/09 13:10:38;;;;;;;1.17;0.50;;;25.40;63.80;;;;;;6363692;27;20114;-53
2023/08/09 13:13:40;;;;;;;0.20;0.20;;;25.40;64.00;;;;;;6345011;27;20047;-54
2023/08/09 13:16:42;;;;;;;0.30;0.30;;;25.20;63.60;;;;;;6366442;27;20046;-53
2023/08/09 13:19:44;;;;;;;0.85;0.30;;;25.40;63.70;;;;;;6364317;27;20039;-51
2023/08/09 13:22:46;;;;;;;0.32;0.30;;;25.40;63.80;;;;;;6368196;27;20039;-55
2023/08/09 13:25:48;;;;;;;2.13;0.30;;;25.50;64.60;;;;;;6366376;27;20031;-54
2023/08/09 13:28:49;;;;;;;0.40;0.30;;;25.30;63.70;;;;;;6365396;27;20042;-54
2023/08/09 13:31:52;;;;;;;0.30;0.30;;;25.30;64.10;;;;;;6366610;27;20034;-52
2023/08/09 13:34:54;;;;;;;0.75;0.35;;;25.50;63.80;;;;;;6366866;27;20041;-50
2023/08/09 13:37:55;;;;;;;0.30;0.30;;;25.10;63.50;;;;;;6366653;27;20437;-56
2023/08/09 13:40:58;;;;;;;0.38;0.25;;;25.40;63.80;;;;;;6346683;27;20039;-51
2023/08/09 13:44:00;;;;;;;0.20;0.20;;;25.50;63.90;;;;;;6347428;27;20035;-52
2023/08/09 13:47:04;;;;;;;0.30;0.30;;;24.50;63.20;;;;;;6312195;27;20110;-54
2023/08/09 13:50:09;;;;;;;1.77;0.30;;;25.50;63.90;;;;;;6364623;27;20030;-55
2023/08/09 13:53:14;;;;;;;0.20;0.20;;;25.50;64.00;;;;;;6365075;27;20043;-55
2023/08/09 13:56:16;;;;;;;0.30;0.25;;;25.50;64.10;;;;;;6360974;27;20038;-52
2023/08/09 13:59:17;;;;;;;0.32;0.30;;;25.50;64.20;;;;;;6366681;27;20038;-52
2023/08/09 14:02:20;;;;;;;0.20;0.17;;;25.50;64.10;;;;;;6366319;27;20039;-54
2023/08/09 14:05:24;;;;;;;0.70;0.20;;;25.20;64.00;;;;;;6364820;27;20042;-55
2023/08/09 14:08:29;;;;;;;2.55;0.57;;;25.50;64.50;;;;;;6365996;27;20027;-54
2023/08/09 14:11:31;;;;;;;0.52;0.30;;;25.50;64.30;;;;;;6365643;27;20035;-55
2023/08/09 14:14:32;;;;;;;0.20;0.20;;;25.40;64.30;;;;;;6366254;27;20042;-58
2023/08/09 14:17:34;;;;;;;0.25;0.20;;;25.00;64.00;;;;;;6361838;27;20031;-57
2023/08/09 14:20:35;;;;;;;0.73;0.28;;;25.60;64.50;;;;;;6362726;27;20039;-56
2023/08/09 14:23:37;;;;;;;0.57;0.30;;;25.40;64.50;;;;;;6364277;27;20051;-54
2023/08/09 14:26:42;;;;;;;0.47;0.20;;;25.50;64.40;;;;;;6364983;27;20696;-52
2023/08/09 14:29:47;;;;;;;0.20;0.20;;;25.20;64.20;;;;;;6364062;27;20263;-51
2023/08/09 14:32:49;;;;;;;0.30;0.30;;;25.40;64.80;;;;;;6359907;27;20038;-52
2023/08/09 14:35:50;;;;;;;0.20;0.20;;;25.40;64.50;;;;;;6362727;27;20045;-57
2023/08/09 14:38:52;;;;;;;0.40;0.20;;;25.50;64.40;;;;;;6364443;27;20041;-54
2023/08/09 14:41:54;;;;;;;0.20;0.20;;;25.70;64.60;;;;;;6361730;27;20138;-52
2023/08/09 14:44:58;;;;;;;0.20;0.20;;;25.60;64.50;;;;;;6363395;27;20043;-53
2023/08/09 14:48:00;;;;;;;0.20;0.20;;;25.50;64.50;;;;;;6360826;27;20046;-52
2023/08/09 14:51:02;;;;;;;2.08;0.32;;;25.50;64.50;;;;;;6361399;27;20318;-55
2023/08/09 14:54:04;;;;;;;0.68;0.30;;;25.30;64.90;;;;;;6360020;27;20039;-52
2023/08/09 14:57:06;;;;;;;1.20;0.20;;;25.30;65.00;;;;;;6357658;27;20043;-53
2023/08/09 15:00:11;;;;;;;0.10;0.10;;;25.50;64.90;;;;;;6361328;27;20178;-53
2023/08/09 15:03:12;;;;;;;0.20;0.20;;;25.30;66.90;;;;;;6361092;27;20049;-53
2023/08/09 15:06:15;;;;;;;1.23;0.30;;;25.30;66.90;;;;;;6358972;27;20042;-57
2023/08/09 15:09:16;;;;;;;0.73;0.40;;;25.30;67.10;;;;;;6344494;27;20053;-56
2023/08/09 15:12:18;;;;;;;1.65;0.20;;;25.10;67.30;;;;;;6342817;27;20362;-59
2023/08/09 15:15:20;;;;;;;0.20;0.20;;;25.40;67.20;;;;;;6349200;27;20254;-55
2023/08/09 15:18:22;;;;;;;0.15;0.15;;;25.30;67.00;;;;;;6345003;27;20042;-55
2023/08/09 15:21:24;;;;;;;0.30;0.30;;;25.40;67.10;;;;;;6349665;27;20314;-57
2023/08/09 15:24:28;;;;;;;2.85;0.40;;;25.20;67.20;;;;;;6359058;27;20515;-59
2023/08/09 15:27:30;;;;;;;0.30;0.28;;;25.40;66.90;;;;;;6360526;27;20039;-59
2023/08/09 15:30:33;;;;;;;0.35;0.35;;;25.40;67.30;;;;;;6306295;27;20047;-59
2023/08/09 15:33:34;;;;;;;0.40;0.40;;;25.20;67.40;;;;;;6357445;27;20242;-59
2023/08/09 15:36:36;;;;;;;0.68;0.30;;;25.10;67.10;;;;;;6351143;27;20110;-59
2023/08/09 15:39:41;;;;;;;0.20;0.17;;;25.50;67.30;;;;;;6356626;27;20042;-59
2023/08/09 15:42:43;;;;;;;0.32;0.32;;;25.30;67.40;;;;;;6355449;27;20230;-59
2023/08/09 15:45:47;;;;;;;0.30;0.30;;;25.40;67.50;;;;;;6357994;27;20037;-60
2023/08/09 15:48:48;;;;;;;0.30;0.30;;;25.30;68.20;;;;;;6356953;27;20030;-59
2023/08/09 15:51:50;;;;;;;0.38;0.30;;;25.20;68.20;;;;;;6339124;27;20042;-59
2023/08/09 15:54:54;;;;;;;0.30;0.30;;;25.30;68.10;;;;;;6356560;27;20031;-59
2023/08/09 15:57:58;;;;;;;0.30;0.30;;;25.20;67.80;;;;;;6358040;27;20045;-59
2023/08/09 16:01:00;;;;;;;0.20;0.20;;;25.30;68.30;;;;;;6357414;27;20034;-60
2023/08/09 16:04:01;;;;;;;0.20;0.20;;;25.00;67.70;;;;;;6339288;27;20336;-59
2023/08/09 16:07:03;;;;;;;0.30;0.30;;;25.20;68.30;;;;;;6351059;27;20118;-59
2023/08/09 16:10:06;;;;;;;0.20;0.20;;;24.60;68.10;;;;;;6355405;27;20061;-59
2023/08/09 16:13:08;;;;;;;0.30;0.30;;;24.90;68.30;;;;;;6358046;27;20227;-60
2023/08/09 16:16:10;;;;;;;0.52;0.30;;;25.30;68.80;;;;;;6358844;27;20041;-59
2023/08/09 16:19:25;;;;;;;0.40;0.40;;;25.00;68.70;;;;;;6361486;27;20038;-59
2023/08/09 16:22:27;;;;;;;0.20;0.20;;;25.10;69.00;;;;;;6357265;27;20093;-59
2023/08/09 16:25:31;;;;;;;0.22;0.20;;;25.10;69.00;;;;;;6362515;27;20470;-59
2023/08/09 16:28:34;;;;;;;0.30;0.20;;;25.10;68.90;;;;;;6364226;27;20410;-59
2023/08/09 16:31:36;;;;;;;0.85;0.40;;;25.20;69.20;;;;;;6362020;27;20051;-59
2023/08/09 16:34:38;;;;;;;0.30;0.20;;;25.30;69.10;;;;;;6364512;27;20045;-59
2023/08/09 16:37:40;;;;;;;0.20;0.20;;;25.10;69.00;;;;;;6362067;27;20042;-59
2023/08/09 16:40:43;;;;;;;0.20;0.20;;;25.20;69.00;;;;;;6363970;27;20091;-59
2023/08/09 16:43:48;;;;;;;0.40;0.22;;;25.30;69.10;;;;;;6361727;27;20354;-58
2023/08/09 16:46:52;;;;;;;0.40;0.40;;;25.60;67.00;;;;;;6363083;27;20046;-59
2023/08/09 16:49:54;;;;;;;0.20;0.20;;;25.30;68.70;;;;;;6360198;27;20420;-59
2023/08/09 16:52:55;;;;;;;0.30;0.20;;;25.60;69.00;;;;;;6361425;27;20459;-59
2023/08/09 16:55:57;;;;;;;0.30;0.30;;;25.50;69.00;;;;;;6346073;27;20540;-59
2023/08/09 16:58:59;;;;;;;0.17;0.17;;;25.50;68.70;;;;;;6361413;27;20099;-59
2023/08/09 17:02:02;;;;;;;0.20;0.20;;;25.60;68.20;;;;;;6346654;27;20111;-59
2023/08/09 17:05:06;;;;;;;0.20;0.20;;;25.40;67.70;;;;;;6365385;27;20058;-59
2023/08/09 17:08:08;;;;;;;0.10;0.10;;;25.80;68.00;;;;;;6362327;27;20663;-59
2023/08/09 17:11:12;;;;;;;0.20;0.20;;;25.80;68.20;;;;;;6369264;27;20121;-59
2023/08/09 17:14:16;;;;;;;0.20;0.20;;;25.60;68.10;;;;;;6370405;27;20042;-59
2023/08/09 17:17:17;;;;;;;0.20;0.20;;;25.80;67.50;;;;;;6372328;27;20041;-59
2023/08/09 17:20:19;;;;;;;0.25;0.20;;;25.80;67.90;;;;;;6367580;27;20031;-60
2023/08/09 17:23:22;;;;;;;0.20;0.20;;;25.70;67.20;;;;;;6354545;27;20114;-59
2023/08/09 17:26:25;;;;;;;0.20;0.20;;;25.70;67.30;;;;;;6373345;27;20031;-59
2023/08/09 17:29:27;;;;;;;0.73;0.30;;;25.60;67.20;;;;;;6373095;27;20034;-59
2023/08/09 17:32:29;;;;;;;0.63;0.30;;;25.80;67.30;;;;;;6371047;27;20586;-59
2023/08/09 17:35:30;;;;;;;0.30;0.30;;;25.70;67.20;;;;;;6372509;27;20127;-59
2023/08/09 17:38:36;;;;;;;0.40;0.25;;;25.80;67.60;;;;;;6371913;27;20027;-59
2023/08/09 17:41:38;;;;;;;0.10;0.10;;;25.80;67.20;;;;;;6367308;27;20618;-59
2023/08/09 17:44:43;;;;;;;0.30;0.30;;;25.30;66.80;;;;;;6366361;27;20442;-59
2023/08/09 17:47:45;;;;;;;0.40;0.40;;;25.40;66.60;;;;;;6369497;27;20401;-59
2023/08/09 17:50:51;;;;;;;0.20;0.20;;;25.60;67.10;;;;;;6368541;27;20095;-59
2023/08/09 17:53:54;;;;;;;0.30;0.25;;;25.80;67.00;;;;;;6367941;27;20126;-59
2023/08/09 17:56:56;;;;;;;0.28;0.20;;;25.50;66.90;;;;;;6365583;27;20075;-59
2023/08/09 17:59:58;;;;;;;0.20;0.20;;;25.80;67.00;;;;;;6367819;27;20039;-59
2023/08/09 18:03:00;;;;;;;0.20;0.20;;;25.80;67.00;;;;;;6368447;27;20049;-59
2023/08/09 18:06:04;;;;;;;0.30;0.30;;;25.90;67.00;;;;;;6367905;27;20084;-59
2023/08/09 18:09:08;;;;;;;0.30;0.30;;;25.60;66.80;;;;;;6368875;27;20042;-59
2023/08/09 18:12:10;;;;;;;0.32;0.30;;;25.80;66.80;;;;;;6368784;27;20042;-59
2023/08/09 18:15:12;;;;;;;0.68;0.32;;;25.80;66.90;;;;;;6369691;27;20041;-59
2023/08/09 18:18:14;;;;;;;0.28;0.28;;;25.60;66.60;;;;;;6371335;27;20042;-59
2023/08/09 18:21:16;;;;;;;0.20;0.20;;;25.70;66.70;;;;;;6369645;27;20043;-59
2023/08/09 18:24:18;;;;;;;0.57;0.40;;;25.50;66.40;;;;;;6369719;27;20043;-59
2023/08/09 18:27:19;;;;;;;0.35;0.32;;;25.70;66.80;;;;;;6367103;27;20330;-59
2023/08/09 18:30:21;;;;;;;0.30;0.30;;;25.20;66.80;;;;;;6365495;27;20031;-59
2023/08/09 18:33:23;;;;;;;0.30;0.30;;;25.70;67.00;;;;;;6369371;27;20107;-59
2023/08/09 18:36:25;;;;;;;0.30;0.20;;;25.70;66.90;;;;;;6423668;27;20031;-54
2023/08/09 18:39:28;;;;;;;0.30;0.30;;;25.60;67.10;;;;;;6422993;27;20026;-56
2023/08/09 18:42:31;;;;;;;0.50;0.28;;;25.60;67.00;;;;;;6419652;27;20528;-55
2023/08/09 18:45:36;;;;;;;0.10;0.10;;;25.70;67.50;;;;;;6420579;27;20046;-57
2023/08/09 18:48:37;;;;;;;0.40;0.20;;;25.50;67.20;;;;;;6421658;27;20065;-56
2023/08/09 18:51:41;;;;;;;0.38;0.38;;;25.70;67.60;;;;;;6421444;27;20128;-56
2023/08/09 18:54:43;;;;;;;0.30;0.30;;;25.30;67.30;;;;;;6423343;27;20038;-57
2023/08/09 18:57:45;;;;;;;0.30;0.30;;;25.60;67.80;;;;;;6424159;27;20026;-54
2023/08/09 19:00:48;;;;;;;0.40;0.40;;;25.40;67.60;;;;;;6421446;27;20060;-54
2023/08/09 19:03:49;;;;;;;0.30;0.30;;;25.50;67.70;;;;;;6418348;27;20039;-56
2023/08/09 19:06:51;;;;;;;0.28;0.28;;;25.40;67.80;;;;;;6419117;27;20019;-55
2023/08/09 19:09:53;;;;;;;0.22;0.22;;;25.50;68.10;;;;;;6416372;27;20038;-56
2023/08/09 19:12:55;;;;;;;0.40;0.40;;;25.60;66.50;;;;;;6422579;27;20030;-56
2023/08/09 19:15:58;;;;;;;0.35;0.20;;;25.30;68.10;;;;;;6418231;27;20060;-57
2023/08/09 19:19:00;;;;;;;0.25;0.25;;;25.70;68.40;;;;;;6416850;27;20047;-57
2023/08/09 19:22:04;;;;;;;0.75;0.20;;;25.50;68.70;;;;;;6418058;27;20018;-56
2023/08/09 19:25:06;;;;;;;0.30;0.28;;;25.40;68.60;;;;;;6405103;27;20038;-57
2023/08/09 19:28:07;;;;;;;0.43;0.30;;;25.20;68.80;;;;;;6420545;27;20051;-57
2023/08/09 19:31:09;;;;;;;0.28;0.22;;;25.50;69.10;;;;;;6426563;27;20025;-56
2023/08/09 19:34:11;;;;;;;0.32;0.32;;;25.40;69.30;;;;;;6403321;27;20049;-57
2023/08/09 19:37:16;;;;;;;0.40;0.30;;;25.40;69.40;;;;;;6420455;27;20027;-56
2023/08/09 19:40:17;;;;;;;0.38;0.38;;;25.20;69.60;;;;;;6420343;27;20043;-53
2023/08/09 19:43:19;;;;;;;0.40;0.30;;;25.30;69.70;;;;;;6419411;27;20022;-57
2023/08/09 19:46:21;;;;;;;0.40;0.30;;;25.30;70.00;;;;;;6425818;27;20055;-56
2023/08/09 19:49:23;;;;;;;0.30;0.30;;;25.20;69.80;;;;;;6417839;27;20381;-54
2023/08/09 19:52:25;;;;;;;0.30;0.30;;;25.00;70.00;;;;;;6422739;27;20022;-57
2023/08/09 19:55:27;;;;;;;0.30;0.30;;;25.20;70.20;;;;;;6425996;27;20072;-57
2023/08/09 19:58:28;;;;;;;0.40;0.38;;;25.10;71.00;;;;;;6414345;27;20038;-56
2023/08/09 20:01:33;;;;;;;0.30;0.30;;;25.70;71.00;;;;;;6418538;27;20031;-57
2023/08/09 20:04:38;;;;;;;0.40;0.38;;;25.70;70.50;;;;;;6416666;27;20038;-56
2023/08/09 20:07:39;;;;;;;0.50;0.45;;;25.20;68.80;;;;;;6426034;27;20019;-55
2023/08/09 20:10:41;;;;;;;0.40;0.30;;;25.10;70.90;;;;;;6424347;27;20106;-55
2023/08/09 20:13:43;;;;;;;0.30;0.30;;;24.90;70.80;;;;;;6425423;27;20026;-54
2023/08/09 20:16:45;;;;;;;0.50;0.45;;;25.00;70.90;;;;;;6425855;27;20026;-56
2023/08/09 20:19:46;;;;;;;0.47;0.30;;;25.00;70.60;;;;;;6426956;27;20030;-53
2023/08/09 20:22:48;;;;;;;0.35;0.30;;;25.10;71.20;;;;;;6424578;27;20027;-54
2023/08/09 20:25:50;;;;;;;0.47;0.30;;;25.10;71.30;;;;;;6426689;27;20037;-54
2023/08/09 20:28:52;;;;;;;0.52;0.40;;;25.00;71.30;;;;;;6426584;27;20023;-56
2023/08/09 20:31:56;;;;;;;0.35;0.30;;;25.10;71.30;;;;;;6426256;27;20073;-54
2023/08/09 20:35:01;;;;;;;0.30;0.30;;;25.10;71.60;;;;;;6420384;27;20038;-55
2023/08/09 20:38:03;;;;;;;0.32;0.30;;;25.20;71.70;;;;;;6370340;27;20129;-54
2023/08/09 20:41:04;;;;;;;0.38;0.28;;;24.90;72.00;;;;;;6372589;27;20035;-52
2023/08/09 20:44:06;;;;;;;0.47;0.30;;;24.90;71.50;;;;;;6371951;27;20043;-48
2023/08/09 20:47:08;;;;;;;0.63;0.40;;;25.10;71.70;;;;;;6368898;27;20047;-51
2023/08/09 20:50:12;;;;;;;0.40;0.40;;;25.10;71.60;;;;;;6367951;27;20105;-55
2023/08/09 20:53:13;;;;;;;0.25;0.20;;;24.60;71.40;;;;;;6368108;27;20047;-49
2023/08/09 20:56:15;;;;;;;0.30;0.30;;;24.90;71.40;;;;;;6371439;27;20046;-54
2023/08/09 20:59:18;;;;;;;0.32;0.30;;;25.10;72.20;;;;;;6355156;27;20695;-54
2023/08/09 21:02:20;;;;;;;0.30;0.30;;;24.90;72.10;;;;;;6370733;27;20034;-52
2023/08/09 21:05:22;;;;;;;0.50;0.35;;;24.90;72.20;;;;;;6372655;27;20525;-54
2023/08/09 21:08:27;;;;;;;0.20;0.20;;;25.00;71.40;;;;;;6371287;27;20065;-53
2023/08/09 21:11:31;;;;;;;0.40;0.30;;;24.80;71.80;;;;;;6377192;27;20041;-51
2023/08/09 21:14:37;;;;;;;0.30;0.30;;;25.20;72.30;;;;;;6375287;27;20439;-52
2023/08/09 21:17:42;;;;;;;0.22;0.22;;;24.70;71.80;;;;;;6377645;27;20034;-53
2023/08/09 21:20:44;;;;;;;0.30;0.30;;;24.90;72.10;;;;;;6378249;27;20035;-53
2023/08/09 21:23:46;;;;;;;0.32;0.30;;;24.90;72.50;;;;;;6375629;27;20042;-51
2023/08/09 21:26:53;;;;;;;0.20;0.20;;;24.90;72.40;;;;;;6376068;27;20078;-54
2023/08/09 21:29:55;;;;;;;0.30;0.20;;;24.50;71.90;;;;;;6376776;27;20058;-52
2023/08/09 21:32:57;;;;;;;0.55;0.32;;;25.10;72.30;;;;;;6374361;27;20156;-51
2023/08/09 21:35:59;;;;;;;0.50;0.30;;;25.10;72.30;;;;;;6376338;27;20061;-53
2023/08/09 21:39:00;;;;;;;0.40;0.40;;;24.90;71.90;;;;;;6376718;27;20031;-54
2023/08/09 21:42:05;;;;;;;2.08;0.32;;;24.90;72.10;;;;;;6349011;27;20031;-55
2023/08/09 21:45:09;;;;;;;0.30;0.30;;;24.50;72.00;;;;;;6378224;27;20035;-53
2023/08/09 21:48:11;;;;;;;0.30;0.30;;;23.80;71.40;;;;;;6375585;27;20114;-52
2023/08/09 21:51:13;;;;;;;0.20;0.20;;;24.90;72.30;;;;;;6375791;27;20050;-54
2023/08/09 21:54:15;;;;;;;0.60;0.40;;;24.80;72.30;;;;;;6376749;27;20041;-51
2023/08/09 21:57:16;;;;;;;0.30;0.30;;;24.40;71.80;;;;;;6370489;27;20039;-53
2023/08/09 22:00:19;;;;;;;0.38;0.32;;;24.80;72.50;;;;;;6376327;27;20042;-53
2023/08/09 22:03:21;;;;;;;0.30;0.30;;;24.80;71.90;;;;;;6372925;27;20039;-52
2023/08/09 22:06:23;;;;;;;0.30;0.30;;;25.00;72.20;;;;;;6376380;27;20039;-52
2023/08/09 22:09:24;;;;;;;0.28;0.20;;;25.00;72.20;;;;;;6373938;27;20035;-51
2023/08/09 22:12:29;;;;;;;0.30;0.30;;;25.00;72.10;;;;;;6353434;27;20576;-53
2023/08/09 22:15:30;;;;;;;0.40;0.40;;;24.70;71.80;;;;;;6376201;27;20038;-54
2023/08/09 22:18:33;;;;;;;0.57;0.43;;;24.60;72.20;;;;;;6372122;27;20037;-54
2023/08/09 22:21:36;;;;;;;0.40;0.30;;;24.90;71.70;;;;;;6377222;27;20031;-53
2023/08/09 22:24:55;;;;;;;0.20;0.20;;;25.00;72.00;;;;;;6376421;27;20220;-51
2023/08/09 22:27:57;;;;;;;0.50;0.40;;;24.80;71.80;;;;;;6374920;27;20035;-54
2023/08/09 22:31:00;;;;;;;0.20;0.20;;;24.50;72.20;;;;;;6370936;27;20173;-52
2023/08/09 22:34:03;;;;;;;0.40;0.40;;;24.50;71.50;;;;;;6374169;27;20409;-51
2023/08/09 22:37:06;;;;;;;0.32;0.30;;;25.10;72.00;;;;;;6374449;27;20038;-51
2023/08/09 22:40:08;;;;;;;0.50;0.30;;;24.60;71.60;;;;;;6372366;27;20035;-51
2023/08/09 22:43:12;;;;;;;0.43;0.40;;;25.00;71.80;;;;;;6374315;27;20042;-54
2023/08/09 22:46:16;;;;;;;0.30;0.30;;;24.90;72.30;;;;;;6376494;27;20046;-52
2023/08/09 22:49:19;;;;;;;0.30;0.30;;;24.90;71.80;;;;;;6365409;27;20038;-54
2023/08/09 22:52:23;;;;;;;0.20;0.20;;;24.80;71.80;;;;;;6375420;27;20038;-51
2023/08/09 22:55:24;;;;;;;0.20;0.20;;;25.00;72.20;;;;;;6373948;27;20429;-52
2023/08/09 22:58:26;;;;;;;0.30;0.30;;;24.40;70.80;;;;;;6375340;27;20106;-53
2023/08/09 23:01:28;;;;;;;0.47;0.30;;;24.80;72.10;;;;;;6375310;27;20042;-54
2023/08/09 23:04:31;;;;;;;0.35;0.30;;;24.90;71.90;;;;;;6375045;27;20070;-54
2023/08/09 23:07:34;;;;;;;0.50;0.43;;;24.90;72.10;;;;;;6374504;27;20367;-49
2023/08/09 23:10:36;;;;;;;0.28;0.28;;;24.90;71.90;;;;;;6357599;27;20034;-53
2023/08/09 23:13:38;;;;;;;0.50;0.32;;;24.20;71.60;;;;;;6376078;27;20039;-51
2023/08/09 23:16:39;;;;;;;0.30;0.30;;;24.70;72.20;;;;;;6355460;27;20039;-52
2023/08/09 23:19:43;;;;;;;0.40;0.35;;;24.80;72.00;;;;;;6374814;27;20038;-48
2023/08/09 23:22:49;;;;;;;0.90;0.50;;;24.80;72.30;;;;;;6375539;27;20187;-50
2023/08/09 23:25:52;;;;;;;0.45;0.30;;;25.00;72.00;;;;;;6375286;27;20552;-52
2023/08/09 23:28:53;;;;;;;0.40;0.30;;;24.70;71.90;;;;;;6374487;27;20045;-54
2023/08/09 23:31:57;;;;;;;0.30;0.30;;;24.50;72.30;;;;;;6374523;27;20046;-54
2023/08/09 23:34:59;;;;;;;0.40;0.32;;;24.90;71.80;;;;;;6374324;27;20045;-52
2023/08/09 23:38:01;;;;;;;0.40;0.30;;;24.90;72.00;;;;;;6374119;27;20062;-51
2023/08/09 23:41:06;;;;;;;0.30;0.30;;;24.90;72.10;;;;;;6373991;27;20038;-52
2023/08/09 23:44:07;;;;;;;0.47;0.30;;;24.90;72.10;;;;;;6374360;27;20577;-53
2023/08/09 23:47:09;;;;;;;0.60;0.35;;;24.70;72.40;;;;;;6356012;27;20034;-54
2023/08/09 23:50:11;;;;;;;0.98;0.40;;;24.90;72.60;;;;;;6373067;27;20382;-52
2023/08/09 23:53:13;;;;;;;0.60;0.52;;;24.60;71.90;;;;;;6374904;27;20049;-52
2023/08/09 23:56:14;;;;;;;0.28;0.20;;;24.90;72.10;;;;;;6373582;27;20062;-54